Time;durP1;ratioP1;P1;durP2;ratioP2;P2;SDS_P1;SDS_P2;PMS_P1;PMS_P2;Temp;Humidity;BMP_temperature;BMP_pressure;BME280_temperature;BME280_humidity;BME280_pressure;Samples;Min_cycle;Max_cycle;Signal;HPM_P1;HPM_P2
2022/06/30 00:00:36;;;;;;;4.43;3.80;;;22.10;62.00;;;;;;5036294;28;20102;-37
2022/06/30 00:03:01;;;;;;;3.10;2.80;;;22.00;62.00;;;;;;5061492;28;20507;-35
2022/06/30 00:05:27;;;;;;;3.33;3.00;;;22.10;62.00;;;;;;5066660;28;20136;-38
2022/06/30 00:07:52;;;;;;;3.35;3.05;;;22.00;62.00;;;;;;5065947;28;20501;-36
2022/06/30 00:10:18;;;;;;;2.92;2.70;;;22.00;62.20;;;;;;5062662;28;20143;-34
2022/06/30 00:12:43;;;;;;;3.45;3.08;;;22.00;62.10;;;;;;5066347;28;20044;-35
2022/06/30 00:15:09;;;;;;;3.10;2.80;;;22.00;62.10;;;;;;5066147;28;20051;-39
2022/06/30 00:17:35;;;;;;;3.15;2.85;;;22.00;62.10;;;;;;5067681;28;20056;-37
2022/06/30 00:20:00;;;;;;;3.10;2.85;;;22.00;62.10;;;;;;5066159;28;20037;-34
2022/06/30 00:22:26;;;;;;;3.38;3.08;;;22.00;62.30;;;;;;5066399;28;20044;-33
2022/06/30 00:24:52;;;;;;;3.13;2.70;;;22.00;62.30;;;;;;5066756;28;20049;-38
2022/06/30 00:27:18;;;;;;;3.28;2.97;;;22.00;62.20;;;;;;5063928;28;20044;-38
2022/06/30 00:29:43;;;;;;;2.83;2.60;;;22.00;62.30;;;;;;5066403;28;20049;-37
2022/06/30 00:32:09;;;;;;;3.50;2.97;;;22.00;62.10;;;;;;5064346;28;20044;-36
2022/06/30 00:34:35;;;;;;;4.90;3.15;;;22.00;62.30;;;;;;5064278;28;20098;-35
2022/06/30 00:37:01;;;;;;;2.60;2.40;;;22.00;62.30;;;;;;5047890;28;20051;-38
2022/06/30 00:39:26;;;;;;;3.55;3.25;;;22.00;62.30;;;;;;5062793;28;20048;-38
2022/06/30 00:41:52;;;;;;;2.58;2.38;;;21.90;62.30;;;;;;5064472;28;20135;-36
2022/06/30 00:44:18;;;;;;;2.80;2.60;;;22.00;62.30;;;;;;5045916;28;20474;-37
2022/06/30 00:46:43;;;;;;;2.42;2.22;;;22.00;62.40;;;;;;5048196;28;20044;-35
2022/06/30 00:49:09;;;;;;;3.95;2.45;;;21.90;62.30;;;;;;5042739;28;20493;-36
2022/06/30 00:51:34;;;;;;;5.15;2.20;;;21.90;63.10;;;;;;5044184;28;20136;-37
2022/06/30 00:54:02;;;;;;;3.28;2.40;;;22.00;62.30;;;;;;5046736;28;20037;-36
2022/06/30 00:56:28;;;;;;;2.80;2.60;;;21.90;62.30;;;;;;5057117;28;20055;-37
2022/06/30 00:58:55;;;;;;;2.95;2.67;;;21.90;62.30;;;;;;5052667;28;20413;-38
2022/06/30 01:01:21;;;;;;;2.70;2.50;;;21.90;62.60;;;;;;5057375;28;20055;-38
2022/06/30 01:03:46;;;;;;;2.20;2.10;;;21.90;62.50;;;;;;5034822;28;20049;-37
2022/06/30 01:06:12;;;;;;;2.42;2.22;;;21.90;62.50;;;;;;5032194;28;20498;-37
2022/06/30 01:08:38;;;;;;;2.35;2.15;;;21.90;62.50;;;;;;5049880;28;20041;-38
2022/06/30 01:13:47;;;;;;;2.10;2.00;;;21.90;62.50;;;;;;5036761;28;20459;-37
2022/06/30 01:16:13;;;;;;;2.60;2.40;;;21.90;62.30;;;;;;5058777;28;20049;-37
2022/06/30 01:18:39;;;;;;;2.72;2.53;;;21.90;62.30;;;;;;5037235;28;20033;-37
2022/06/30 01:21:05;;;;;;;2.42;2.22;;;21.90;62.30;;;;;;5061173;28;20052;-38
2022/06/30 01:23:30;;;;;;;2.00;1.90;;;21.90;62.50;;;;;;5059139;28;20044;-37
2022/06/30 01:25:56;;;;;;;2.60;2.40;;;21.90;62.50;;;;;;5056411;28;20420;-40
2022/06/30 01:28:21;;;;;;;3.05;2.10;;;21.90;62.50;;;;;;5047458;28;20092;-35
2022/06/30 01:30:47;;;;;;;2.35;2.15;;;21.80;62.60;;;;;;5067488;28;20044;-38
2022/06/30 01:33:13;;;;;;;2.08;1.98;;;21.90;62.40;;;;;;5055653;28;20037;-38
2022/06/30 01:35:38;;;;;;;2.10;2.00;;;21.90;62.50;;;;;;5035594;28;20568;-37
2022/06/30 01:38:04;;;;;;;2.83;1.90;;;21.90;62.50;;;;;;5065241;28;20045;-39
2022/06/30 01:40:33;;;;;;;2.00;1.90;;;21.90;62.50;;;;;;5054400;28;20525;-38
2022/06/30 01:42:59;;;;;;;2.28;2.08;;;21.80;62.50;;;;;;5049442;28;20037;-36
2022/06/30 01:45:24;;;;;;;1.90;1.70;;;21.80;62.60;;;;;;5065991;28;20515;-35
2022/06/30 01:47:53;;;;;;;2.05;1.85;;;21.80;62.60;;;;;;5053307;28;20063;-36
2022/06/30 01:50:24;;;;;;;2.13;1.92;;;21.80;63.40;;;;;;5066248;28;20052;-38
2022/06/30 01:52:49;;;;;;;1.83;1.63;;;21.90;63.20;;;;;;5059903;28;20058;-37
2022/06/30 01:55:15;;;;;;;2.45;2.20;;;21.90;62.40;;;;;;5054186;28;20573;-37
2022/06/30 01:57:41;;;;;;;2.08;1.80;;;21.90;62.60;;;;;;5050953;28;20076;-37
2022/06/30 02:00:10;;;;;;;1.90;1.80;;;21.90;63.30;;;;;;5044138;28;20050;-37
2022/06/30 02:02:36;;;;;;;1.60;1.50;;;21.80;62.50;;;;;;5067346;28;20048;-36
2022/06/30 02:05:01;;;;;;;1.92;1.50;;;21.90;62.60;;;;;;5054188;28;20394;-37
2022/06/30 02:07:28;;;;;;;2.35;1.80;;;21.80;62.50;;;;;;5065003;28;20044;-38
2022/06/30 02:09:53;;;;;;;2.38;2.22;;;21.80;62.70;;;;;;5054839;28;20125;-37
2022/06/30 02:15:04;;;;;;;1.52;1.42;;;21.80;62.80;;;;;;5053669;28;20094;-37
2022/06/30 02:17:30;;;;;;;1.80;1.70;;;21.80;62.70;;;;;;5056183;28;20048;-38
2022/06/30 02:19:55;;;;;;;1.70;1.60;;;21.80;62.70;;;;;;5040273;28;20057;-37
2022/06/30 02:22:21;;;;;;;1.80;1.70;;;21.80;62.70;;;;;;5040158;28;20045;-37
2022/06/30 02:24:46;;;;;;;1.60;1.45;;;21.80;62.90;;;;;;5041507;28;20391;-38
2022/06/30 02:27:12;;;;;;;2.00;1.90;;;21.80;62.70;;;;;;5038665;28;20045;-37
2022/06/30 02:29:38;;;;;;;1.35;1.25;;;21.80;62.60;;;;;;5035198;28;20095;-34
2022/06/30 02:32:04;;;;;;;1.50;1.40;;;21.80;62.70;;;;;;5036791;28;20129;-38
2022/06/30 02:34:29;;;;;;;1.50;1.40;;;21.80;62.70;;;;;;5053824;28;20048;-38
2022/06/30 02:36:55;;;;;;;1.40;1.30;;;21.70;62.80;;;;;;5040117;28;20088;-34
2022/06/30 02:39:21;;;;;;;1.30;1.20;;;21.80;63.70;;;;;;5040544;28;20135;-35
2022/06/30 02:41:47;;;;;;;1.77;1.67;;;21.70;62.90;;;;;;5038059;28;20152;-38
2022/06/30 02:44:12;;;;;;;1.65;1.55;;;21.70;62.90;;;;;;5062674;28;20134;-37
2022/06/30 02:46:38;;;;;;;1.27;1.17;;;21.80;62.80;;;;;;5060331;28;20052;-36
2022/06/30 02:49:03;;;;;;;1.35;1.25;;;21.80;63.00;;;;;;5038412;28;20041;-38
2022/06/30 02:51:30;;;;;;;1.90;1.60;;;21.70;63.00;;;;;;5034772;28;20069;-40
2022/06/30 02:53:55;;;;;;;1.33;1.23;;;21.70;62.80;;;;;;5039200;28;20046;-36
2022/06/30 02:56:21;;;;;;;1.60;1.50;;;21.70;62.70;;;;;;5065950;28;20045;-36
2022/06/30 02:58:47;;;;;;;1.50;1.40;;;21.70;62.80;;;;;;5052085;28;20044;-37
2022/06/30 03:01:13;;;;;;;1.20;1.10;;;21.80;62.80;;;;;;5061408;28;20071;-37
2022/06/30 03:03:39;;;;;;;1.02;1.02;;;21.80;62.90;;;;;;5035749;28;20509;-37
2022/06/30 03:06:04;;;;;;;1.50;1.20;;;21.70;63.10;;;;;;5038553;28;20041;-36
2022/06/30 03:08:30;;;;;;;2.03;1.48;;;21.70;63.00;;;;;;5060908;28;20064;-38
2022/06/30 03:10:55;;;;;;;1.00;0.90;;;21.70;63.20;;;;;;5056011;28;20098;-37
2022/06/30 03:13:21;;;;;;;1.45;1.35;;;21.80;63.20;;;;;;5067585;28;20060;-37
2022/06/30 03:15:49;;;;;;;1.30;1.20;;;21.80;63.10;;;;;;5063349;28;20497;-37
2022/06/30 03:18:15;;;;;;;1.23;1.10;;;21.70;63.10;;;;;;5050558;28;20106;-35
2022/06/30 03:20:40;;;;;;;1.45;1.35;;;21.70;63.00;;;;;;5067161;28;20568;-36
2022/06/30 03:23:06;;;;;;;0.90;0.90;;;21.70;63.10;;;;;;5066851;28;20124;-38
2022/06/30 03:25:31;;;;;;;1.17;1.08;;;21.70;63.10;;;;;;5051968;28;20047;-38
2022/06/30 03:27:57;;;;;;;1.20;1.10;;;21.70;63.30;;;;;;5053589;28;20041;-36
2022/06/30 03:30:23;;;;;;;1.23;1.13;;;21.80;63.10;;;;;;5064951;28;20485;-38
2022/06/30 03:32:48;;;;;;;1.00;0.90;;;21.80;63.00;;;;;;5048037;28;20059;-36
2022/06/30 03:35:14;;;;;;;1.35;1.25;;;21.70;63.00;;;;;;5060376;28;20058;-38
2022/06/30 03:37:39;;;;;;;1.20;1.10;;;21.70;62.80;;;;;;5050434;28;20075;-32
2022/06/30 03:40:05;;;;;;;1.30;1.20;;;21.80;63.00;;;;;;5063198;28;20409;-37
2022/06/30 03:42:31;;;;;;;1.30;1.20;;;21.80;63.00;;;;;;5064187;28;20051;-37
2022/06/30 03:44:56;;;;;;;1.10;1.00;;;21.70;63.10;;;;;;5049580;28;20040;-34
2022/06/30 03:47:22;;;;;;;1.10;1.10;;;21.70;62.90;;;;;;5062655;28;20048;-35
2022/06/30 03:49:47;;;;;;;1.20;1.10;;;21.80;63.10;;;;;;5050021;28;20059;-37
2022/06/30 03:52:13;;;;;;;0.90;0.90;;;21.70;63.10;;;;;;5060190;28;20052;-36
2022/06/30 03:54:39;;;;;;;1.00;0.90;;;21.80;63.10;;;;;;5046292;28;20048;-38
2022/06/30 03:57:04;;;;;;;1.88;0.85;;;21.70;63.00;;;;;;5058346;28;20038;-37
2022/06/30 03:59:30;;;;;;;0.82;0.80;;;21.70;63.20;;;;;;5049028;28;20036;-38
2022/06/30 04:01:56;;;;;;;0.77;0.77;;;21.70;63.30;;;;;;5049504;28;20047;-36
2022/06/30 04:04:21;;;;;;;0.98;0.98;;;21.70;63.10;;;;;;5046950;28;20129;-36
2022/06/30 04:06:47;;;;;;;1.30;1.20;;;21.80;62.80;;;;;;5058409;28;20521;-38
2022/06/30 04:09:12;;;;;;;1.10;1.00;;;21.70;63.80;;;;;;5049228;28;20409;-36
2022/06/30 04:11:38;;;;;;;1.27;1.10;;;21.70;63.00;;;;;;5054748;28;20053;-38
2022/06/30 04:14:04;;;;;;;0.93;0.93;;;21.80;63.00;;;;;;5038279;28;20041;-36
2022/06/30 04:16:29;;;;;;;0.88;0.88;;;21.80;62.90;;;;;;5040597;28;20042;-39
2022/06/30 04:18:55;;;;;;;0.80;0.80;;;21.70;63.00;;;;;;5039733;28;20045;-37
2022/06/30 04:21:21;;;;;;;0.98;0.77;;;21.70;63.00;;;;;;5035737;28;20494;-35
2022/06/30 04:23:46;;;;;;;1.27;1.13;;;21.70;63.00;;;;;;5034651;28;20065;-36
2022/06/30 04:26:12;;;;;;;1.13;1.02;;;21.70;63.00;;;;;;5038062;28;20132;-36
2022/06/30 04:28:38;;;;;;;0.73;0.73;;;21.70;62.90;;;;;;5038493;28;20091;-34
2022/06/30 04:33:48;;;;;;;1.25;1.15;;;21.80;62.80;;;;;;5064980;28;20067;-37
2022/06/30 04:36:13;;;;;;;0.70;0.70;;;21.80;62.80;;;;;;5053157;28;20057;-37
2022/06/30 04:38:39;;;;;;;0.80;0.70;;;21.70;62.70;;;;;;5038308;28;20037;-37
2022/06/30 04:43:49;;;;;;;;;;;21.70;62.90;;;;;;5064921;28;20095;-37
2022/06/30 04:46:14;;;;;;;0.65;0.65;;;21.70;63.10;;;;;;5066463;28;20346;-37
2022/06/30 04:48:40;;;;;;;0.63;0.55;;;21.70;62.90;;;;;;5067561;28;20053;-38
2022/06/30 04:51:07;;;;;;;1.23;1.13;;;21.70;62.90;;;;;;5066848;28;20048;-38
2022/06/30 04:53:33;;;;;;;0.90;0.90;;;21.70;63.10;;;;;;5069761;28;20416;-37
2022/06/30 04:55:59;;;;;;;0.80;0.80;;;21.70;62.80;;;;;;5071699;28;20052;-36
2022/06/30 04:58:24;;;;;;;0.60;0.60;;;21.70;63.00;;;;;;5064662;28;20565;-35
2022/06/30 05:00:53;;;;;;;1.00;1.00;;;21.70;62.90;;;;;;5070812;28;20136;-39
2022/06/30 05:03:18;;;;;;;0.88;0.88;;;21.70;62.90;;;;;;5069405;28;20524;-33
2022/06/30 05:05:44;;;;;;;0.50;0.50;;;21.80;62.90;;;;;;5067956;28;20056;-37
2022/06/30 05:08:09;;;;;;;0.63;0.63;;;21.70;63.00;;;;;;5071868;28;20055;-33
2022/06/30 05:10:35;;;;;;;0.57;0.57;;;21.70;63.10;;;;;;5069574;28;20056;-35
2022/06/30 05:13:00;;;;;;;0.75;0.70;;;21.70;63.10;;;;;;5071227;28;20036;-36
2022/06/30 05:15:26;;;;;;;1.15;0.80;;;21.60;63.00;;;;;;5069423;28;20398;-38
2022/06/30 05:17:52;;;;;;;1.10;1.00;;;21.70;63.00;;;;;;5067955;28;20036;-37
2022/06/30 05:20:17;;;;;;;0.63;0.63;;;21.70;63.00;;;;;;5069198;28;20086;-36
2022/06/30 05:22:43;;;;;;;0.70;0.70;;;21.70;63.00;;;;;;4710802;28;9999936;-37
2022/06/30 05:27:53;;;;;;;;;;;21.70;63.00;;;;;;5062032;28;20536;-37
2022/06/30 05:30:18;;;;;;;0.60;0.60;;;21.70;63.10;;;;;;5056665;28;20011;-36
2022/06/30 05:32:44;;;;;;;1.13;0.70;;;21.70;63.10;;;;;;5054813;28;20611;-39
2022/06/30 05:35:10;;;;;;;0.85;0.85;;;21.70;63.80;;;;;;5066430;28;20044;-38
2022/06/30 05:37:36;;;;;;;0.95;0.85;;;21.60;63.80;;;;;;5066547;28;20773;-37
2022/06/30 05:40:02;;;;;;;0.80;0.70;;;21.60;63.80;;;;;;5060370;28;20144;-37
2022/06/30 05:42:29;;;;;;;1.10;1.00;;;21.60;63.80;;;;;;5056872;28;20480;-38
2022/06/30 05:44:54;;;;;;;0.80;0.70;;;21.70;63.80;;;;;;5033389;28;20067;-38
2022/06/30 05:47:20;;;;;;;0.73;0.73;;;21.70;63.70;;;;;;5039978;28;20478;-38
2022/06/30 05:49:45;;;;;;;0.82;0.63;;;21.70;63.70;;;;;;5034660;28;20160;-37
2022/06/30 05:52:11;;;;;;;1.15;0.88;;;21.70;63.70;;;;;;5036622;28;20041;-38
2022/06/30 05:54:36;;;;;;;0.80;0.70;;;21.70;63.70;;;;;;5036740;28;20082;-36
2022/06/30 05:57:02;;;;;;;0.57;0.57;;;21.60;63.70;;;;;;5057302;28;20029;-35
2022/06/30 05:59:28;;;;;;;0.60;0.60;;;21.60;63.90;;;;;;5064162;28;20044;-38
2022/06/30 06:01:54;;;;;;;1.05;1.02;;;21.60;63.80;;;;;;5047127;28;20041;-38
2022/06/30 06:04:19;;;;;;;0.70;0.70;;;21.60;64.10;;;;;;5045686;28;20063;-39
2022/06/30 06:06:45;;;;;;;0.50;0.50;;;21.60;64.00;;;;;;5052674;28;20460;-38
2022/06/30 06:09:10;;;;;;;0.88;0.88;;;21.60;64.00;;;;;;5051382;28;20045;-38
2022/06/30 06:11:36;;;;;;;0.65;0.50;;;21.60;63.90;;;;;;5051896;28;20416;-38
2022/06/30 06:14:02;;;;;;;0.70;0.70;;;21.60;64.00;;;;;;5058808;28;20053;-37
2022/06/30 06:16:27;;;;;;;0.73;0.50;;;21.60;64.00;;;;;;5049162;28;20052;-38
2022/06/30 06:18:53;;;;;;;0.85;0.60;;;21.60;64.00;;;;;;5046835;28;20506;-37
2022/06/30 06:21:19;;;;;;;0.75;0.65;;;21.60;63.90;;;;;;5057919;28;20527;-37
2022/06/30 06:23:44;;;;;;;0.50;0.50;;;21.60;64.00;;;;;;5061722;28;20091;-37
2022/06/30 06:26:10;;;;;;;1.38;0.57;;;21.60;63.80;;;;;;5048666;28;20039;-38
2022/06/30 06:31:20;;;;;;;0.50;0.50;;;21.60;63.60;;;;;;4704792;28;10000076;-36
2022/06/30 06:33:47;;;;;;;0.55;0.55;;;21.70;64.20;;;;;;5057328;28;20503;-37
2022/06/30 06:36:13;;;;;;;0.57;0.45;;;21.70;63.40;;;;;;5062050;28;20041;-36
2022/06/30 06:38:39;;;;;;;3.05;0.80;;;21.70;63.50;;;;;;5056919;28;20044;-41
2022/06/30 06:41:07;;;;;;;0.80;0.60;;;21.70;63.60;;;;;;5067516;28;20048;-33
2022/06/30 06:43:34;;;;;;;0.80;0.80;;;21.60;64.50;;;;;;5044183;28;20040;-35
2022/06/30 06:45:59;;;;;;;0.70;0.57;;;21.60;63.80;;;;;;5061380;28;20519;-35
2022/06/30 06:48:25;;;;;;;0.70;0.70;;;21.60;63.70;;;;;;5063350;28;20127;-34
2022/06/30 06:50:50;;;;;;;0.60;0.60;;;21.60;63.80;;;;;;5056858;28;20067;-34
2022/06/30 06:53:16;;;;;;;0.57;0.50;;;21.60;63.80;;;;;;5050507;28;20132;-36
2022/06/30 06:55:42;;;;;;;0.82;0.60;;;21.50;63.90;;;;;;5062469;28;20045;-37
2022/06/30 06:58:08;;;;;;;0.55;0.55;;;21.60;63.80;;;;;;5048277;28;20041;-35
2022/06/30 07:00:34;;;;;;;0.60;0.60;;;21.60;63.60;;;;;;5053437;28;20501;-36
2022/06/30 07:02:59;;;;;;;0.70;0.60;;;21.70;63.50;;;;;;5040129;28;20049;-36
2022/06/30 07:05:25;;;;;;;2.30;0.50;;;21.60;64.00;;;;;;5058147;28;20501;-40
2022/06/30 07:08:00;;;;;;;0.45;0.45;;;21.60;64.80;;;;;;5050448;28;20177;-36
2022/06/30 07:10:26;;;;;;;1.08;0.40;;;21.60;64.00;;;;;;5054543;28;20067;-37
2022/06/30 07:12:52;;;;;;;0.38;0.38;;;21.60;63.90;;;;;;5061186;28;20440;-38
2022/06/30 07:15:18;;;;;;;1.20;0.50;;;21.60;63.80;;;;;;5051935;28;20139;-35
2022/06/30 07:17:43;;;;;;;0.60;0.60;;;21.60;63.60;;;;;;5065570;28;20040;-37
2022/06/30 07:20:09;;;;;;;0.60;0.43;;;21.60;63.60;;;;;;5063964;28;20047;-34
2022/06/30 07:22:35;;;;;;;0.40;0.40;;;21.60;63.60;;;;;;5048880;28;20041;-37
2022/06/30 07:25:01;;;;;;;0.40;0.40;;;21.60;63.80;;;;;;5063156;28;20045;-36
2022/06/30 07:27:27;;;;;;;1.00;0.60;;;21.50;63.80;;;;;;5046517;28;20049;-32
2022/06/30 07:29:52;;;;;;;0.75;0.52;;;21.60;64.60;;;;;;5066319;28;20120;-37
2022/06/30 07:32:18;;;;;;;0.30;0.30;;;21.60;63.60;;;;;;5052148;28;20409;-37
2022/06/30 07:34:44;;;;;;;0.40;0.40;;;21.60;63.60;;;;;;5068394;28;20091;-32
2022/06/30 07:37:09;;;;;;;1.55;0.40;;;21.60;63.40;;;;;;5065362;28;20045;-37
2022/06/30 07:39:35;;;;;;;1.30;0.25;;;21.60;63.30;;;;;;5049597;28;20071;-36
2022/06/30 07:42:01;;;;;;;1.67;0.45;;;21.70;64.00;;;;;;5067494;28;20052;-34
2022/06/30 07:44:26;;;;;;;0.45;0.45;;;21.70;63.00;;;;;;5060736;28;20102;-35
2022/06/30 07:46:52;;;;;;;2.05;0.60;;;21.70;63.20;;;;;;5046667;28;20053;-36
2022/06/30 07:49:18;;;;;;;0.77;0.60;;;21.60;63.20;;;;;;5055579;28;20060;-36
2022/06/30 07:51:43;;;;;;;1.65;0.40;;;21.60;63.40;;;;;;5056201;28;20421;-37
2022/06/30 07:54:09;;;;;;;0.50;0.50;;;21.70;63.30;;;;;;5059017;28;20079;-37
2022/06/30 07:56:34;;;;;;;0.75;0.43;;;21.70;63.10;;;;;;5062802;28;20052;-35
2022/06/30 07:59:00;;;;;;;0.45;0.40;;;21.60;63.20;;;;;;5057972;28;20048;-35
2022/06/30 08:01:26;;;;;;;0.80;0.40;;;21.70;63.00;;;;;;5052869;28;20413;-36
2022/06/30 08:03:51;;;;;;;1.48;0.47;;;21.70;63.50;;;;;;5052171;28;20072;-37
2022/06/30 08:06:17;;;;;;;1.67;0.40;;;21.70;62.90;;;;;;5060942;28;20036;-37
2022/06/30 08:08:43;;;;;;;0.40;0.40;;;21.80;63.50;;;;;;5050828;28;20044;-38
2022/06/30 08:11:12;;;;;;;0.40;0.35;;;21.70;62.80;;;;;;5052338;28;20165;-36
2022/06/30 08:13:37;;;;;;;20.13;1.50;;;21.60;63.20;;;;;;5064572;28;20048;-39
2022/06/30 08:16:03;;;;;;;0.43;0.32;;;21.60;63.90;;;;;;5053325;28;20575;-39
2022/06/30 08:18:29;;;;;;;0.95;0.50;;;21.70;63.80;;;;;;5048607;28;20057;-38
2022/06/30 08:20:55;;;;;;;3.08;0.55;;;21.80;63.70;;;;;;5048436;28;20043;-35
2022/06/30 08:23:20;;;;;;;0.73;0.35;;;21.80;63.60;;;;;;5048230;28;20137;-38
2022/06/30 08:25:46;;;;;;;0.60;0.40;;;21.80;64.00;;;;;;5042115;28;20042;-35
2022/06/30 08:28:11;;;;;;;0.50;0.35;;;21.80;63.70;;;;;;5066373;28;20127;-36
2022/06/30 08:30:37;;;;;;;0.93;0.50;;;21.80;63.60;;;;;;5054407;28;20572;-37
2022/06/30 08:33:03;;;;;;;0.22;0.22;;;21.80;64.40;;;;;;5050332;28;20137;-39
2022/06/30 08:35:28;;;;;;;1.25;0.47;;;21.80;63.60;;;;;;5067286;28;20041;-38
2022/06/30 08:37:54;;;;;;;0.50;0.30;;;21.80;63.50;;;;;;5057756;28;20044;-38
2022/06/30 08:43:06;;;;;;;1.75;0.20;;;21.90;63.30;;;;;;5065478;28;20125;-37
2022/06/30 08:45:31;;;;;;;0.60;0.40;;;21.90;63.30;;;;;;5064016;28;20516;-36
2022/06/30 08:47:57;;;;;;;0.35;0.32;;;21.90;63.30;;;;;;5030041;28;20067;-39
2022/06/30 08:50:22;;;;;;;1.88;0.38;;;21.90;63.20;;;;;;5060369;28;20048;-39
2022/06/30 08:52:53;;;;;;;0.60;0.50;;;21.90;63.40;;;;;;5052474;28;20036;-39
2022/06/30 08:55:28;;;;;;;2.17;0.50;;;21.90;63.30;;;;;;5061094;28;20070;-38
2022/06/30 08:58:05;;;;;;;0.57;0.50;;;21.90;63.30;;;;;;5064179;28;20531;-39
2022/06/30 09:00:30;;;;;;;1.20;0.70;;;21.90;63.20;;;;;;5069342;28;20052;-39
2022/06/30 09:02:56;;;;;;;0.50;0.47;;;22.00;63.00;;;;;;5054427;28;20049;-38
2022/06/30 09:05:22;;;;;;;0.50;0.43;;;22.00;62.80;;;;;;5047646;28;20055;-36
2022/06/30 09:07:47;;;;;;;0.50;0.30;;;22.00;62.80;;;;;;5044837;28;20087;-36
2022/06/30 09:10:13;;;;;;;1.70;0.30;;;22.00;62.70;;;;;;5048204;28;20050;-31
2022/06/30 09:12:38;;;;;;;0.60;0.52;;;22.00;63.80;;;;;;5047107;28;20052;-35
2022/06/30 09:15:04;;;;;;;0.47;0.35;;;22.00;63.20;;;;;;5052027;28;20156;-36
2022/06/30 09:17:30;;;;;;;0.80;0.52;;;22.00;63.20;;;;;;5038571;28;20051;-33
2022/06/30 09:20:00;;;;;;;1.27;0.43;;;22.00;62.90;;;;;;5064282;28;20084;-33
2022/06/30 09:22:35;;;;;;;0.47;0.43;;;22.00;63.00;;;;;;5061924;28;20080;-33
2022/06/30 09:25:02;;;;;;;1.17;0.30;;;22.00;62.90;;;;;;5061671;28;20105;-37
2022/06/30 09:27:29;;;;;;;0.35;0.35;;;22.00;62.70;;;;;;5061779;28;20056;-35
2022/06/30 09:30:08;;;;;;;0.95;0.70;;;22.00;62.80;;;;;;5048947;28;20049;-35
2022/06/30 09:32:54;;;;;;;0.50;0.45;;;22.00;62.70;;;;;;5053346;28;20044;-39
2022/06/30 09:35:24;;;;;;;0.50;0.40;;;22.00;62.40;;;;;;5033470;28;20119;-36
2022/06/30 09:38:09;;;;;;;0.70;0.50;;;22.10;61.80;;;;;;5060183;28;20060;-37
2022/06/30 09:41:00;;;;;;;0.28;0.28;;;22.10;62.50;;;;;;5063643;28;20045;-38
2022/06/30 09:43:37;;;;;;;4.18;1.02;;;22.20;62.60;;;;;;5061053;28;20048;-36
2022/06/30 09:46:04;;;;;;;0.63;0.30;;;22.30;62.50;;;;;;5060821;28;20040;-39
2022/06/30 09:48:31;;;;;;;0.50;0.40;;;22.40;62.00;;;;;;5044554;28;20044;-36
2022/06/30 09:51:01;;;;;;;0.95;0.32;;;22.40;62.20;;;;;;5056931;28;20424;-38
2022/06/30 09:53:27;;;;;;;0.35;0.30;;;22.40;62.00;;;;;;5051529;28;20068;-37
2022/06/30 09:55:53;;;;;;;0.40;0.30;;;22.40;61.90;;;;;;5064058;28;20049;-34
2022/06/30 09:58:30;;;;;;;0.38;0.30;;;22.40;61.70;;;;;;5047915;28;20080;-39
2022/06/30 10:00:57;;;;;;;0.47;0.47;;;22.40;61.70;;;;;;5064548;28;20094;-39
2022/06/30 10:03:22;;;;;;;0.30;0.25;;;22.40;61.60;;;;;;5053694;28;20049;-37
2022/06/30 10:05:49;;;;;;;1.50;0.35;;;22.40;61.60;;;;;;5061184;28;20051;-38
2022/06/30 10:08:15;;;;;;;0.47;0.45;;;22.40;61.60;;;;;;5029771;28;20099;-39
2022/06/30 10:10:42;;;;;;;0.75;0.40;;;22.40;61.60;;;;;;5052650;28;20144;-37
2022/06/30 10:13:13;;;;;;;2.00;0.60;;;22.40;61.60;;;;;;5051551;28;20097;-39
2022/06/30 10:15:38;;;;;;;0.60;0.40;;;22.40;61.60;;;;;;5057633;28;20033;-38
2022/06/30 10:18:04;;;;;;;0.40;0.22;;;22.40;61.60;;;;;;5045506;28;20429;-37
2022/06/30 10:20:33;;;;;;;0.30;0.30;;;22.40;61.60;;;;;;5064299;28;20474;-36
2022/06/30 10:22:58;;;;;;;0.35;0.30;;;22.40;61.50;;;;;;5055611;28;20057;-38
2022/06/30 10:25:24;;;;;;;0.93;0.60;;;22.50;61.70;;;;;;5057643;28;20067;-37
2022/06/30 10:27:50;;;;;;;0.47;0.40;;;22.50;61.80;;;;;;5062072;28;20539;-39
2022/06/30 10:30:17;;;;;;;0.20;0.20;;;22.50;61.70;;;;;;5046469;28;20036;-39
2022/06/30 10:32:58;;;;;;;0.40;0.30;;;22.60;62.50;;;;;;5060967;28;20044;-37
2022/06/30 10:35:28;;;;;;;0.73;0.40;;;22.60;61.70;;;;;;5050958;28;20048;-37
2022/06/30 10:38:20;;;;;;;0.30;0.30;;;22.60;62.00;;;;;;5051926;28;20083;-38
2022/06/30 10:40:59;;;;;;;0.40;0.30;;;22.60;61.70;;;;;;5031840;28;20510;-39
2022/06/30 10:43:25;;;;;;;0.30;0.22;;;22.50;62.20;;;;;;5034125;28;20429;-37
2022/06/30 10:45:57;;;;;;;1.05;0.40;;;22.50;62.00;;;;;;5058239;28;20045;-39
2022/06/30 10:48:22;;;;;;;0.60;0.30;;;22.60;62.30;;;;;;5061468;28;20559;-39
2022/06/30 10:50:49;;;;;;;0.68;0.40;;;22.50;62.10;;;;;;5064991;28;20037;-37
2022/06/30 10:53:35;;;;;;;0.40;0.30;;;22.50;62.00;;;;;;5058069;28;20064;-38
2022/06/30 10:56:01;;;;;;;0.32;0.25;;;22.50;62.00;;;;;;5025679;28;20042;-38
2022/06/30 10:58:26;;;;;;;0.30;0.30;;;22.50;62.80;;;;;;5051615;28;20482;-39
2022/06/30 11:01:03;;;;;;;0.60;0.50;;;22.50;62.60;;;;;;5049176;28;20036;-37
2022/06/30 11:03:32;;;;;;;0.30;0.20;;;22.50;62.10;;;;;;5065198;28;20044;-39
2022/06/30 11:06:11;;;;;;;0.98;0.40;;;22.50;61.70;;;;;;5063174;28;20090;-37
2022/06/30 11:08:37;;;;;;;0.30;0.20;;;22.50;61.80;;;;;;5064056;28;20040;-38
2022/06/30 11:11:36;;;;;;;0.22;0.10;;;22.50;61.90;;;;;;5063091;28;20135;-37
2022/06/30 11:14:01;;;;;;;0.30;0.30;;;22.50;61.80;;;;;;5019512;28;20489;-38
2022/06/30 11:16:27;;;;;;;0.20;0.20;;;22.60;61.90;;;;;;5011609;28;20080;-36
2022/06/30 11:18:52;;;;;;;0.50;0.50;;;22.70;62.00;;;;;;5020375;28;20041;-39
2022/06/30 11:21:18;;;;;;;0.20;0.20;;;22.70;61.90;;;;;;5018188;28;20773;-38
2022/06/30 11:23:47;;;;;;;0.35;0.25;;;22.70;61.90;;;;;;5017076;28;20163;-35
2022/06/30 11:28:59;;;;;;;0.15;0.15;;;22.70;61.50;;;;;;5010691;28;20052;-39
2022/06/30 11:31:30;;;;;;;1.00;0.30;;;22.70;61.50;;;;;;5019199;28;20049;-37
2022/06/30 11:34:00;;;;;;;0.40;0.40;;;22.70;61.40;;;;;;5012850;28;20054;-36
2022/06/30 11:36:26;;;;;;;0.30;0.20;;;22.70;61.50;;;;;;5017227;28;20677;-38
2022/06/30 11:39:14;;;;;;;0.40;0.20;;;22.70;61.40;;;;;;5005659;28;20041;-38
2022/06/30 11:41:55;;;;;;;0.30;0.30;;;22.60;61.20;;;;;;5016525;28;20142;-40
2022/06/30 11:44:32;;;;;;;0.47;0.20;;;22.60;61.50;;;;;;4998136;28;20179;-39
2022/06/30 11:47:03;;;;;;;0.30;0.30;;;22.60;61.60;;;;;;5012020;28;20053;-40
2022/06/30 11:49:40;;;;;;;0.20;0.20;;;22.60;61.20;;;;;;5029393;28;20048;-22
2022/06/30 11:52:10;;;;;;;0.32;0.20;;;22.80;61.50;;;;;;5044579;28;20076;-21
2022/06/30 11:54:35;;;;;;;0.17;0.10;;;22.70;61.20;;;;;;5031556;28;20052;-23
2022/06/30 11:57:01;;;;;;;0.30;0.20;;;22.70;61.00;;;;;;5052804;28;20037;-22
2022/06/30 11:59:27;;;;;;;0.40;0.20;;;22.70;61.00;;;;;;5034777;28;20041;-21
2022/06/30 12:02:07;;;;;;;0.75;0.30;;;22.70;61.00;;;;;;5046154;28;20052;-21
2022/06/30 12:04:38;;;;;;;0.75;0.40;;;22.60;60.80;;;;;;5038210;28;20045;-22
2022/06/30 12:07:04;;;;;;;0.73;0.30;;;22.70;61.20;;;;;;4691971;28;10000519;-21
2022/06/30 12:09:30;;;;;;;5.20;0.60;;;22.70;61.10;;;;;;5041671;28;20071;-21
2022/06/30 12:11:58;;;;;;;0.10;0.10;;;22.70;60.70;;;;;;5040529;28;20056;-21
2022/06/30 12:14:25;;;;;;;0.32;0.25;;;22.70;60.60;;;;;;5040968;28;20517;-21
2022/06/30 12:16:57;;;;;;;0.20;0.10;;;22.70;60.60;;;;;;5040453;28;20064;-21
2022/06/30 12:19:23;;;;;;;0.22;0.20;;;22.70;60.80;;;;;;5043935;28;20055;-21
2022/06/30 12:21:52;;;;;;;0.85;0.20;;;22.60;60.70;;;;;;5050735;28;20157;-19
2022/06/30 12:24:18;;;;;;;0.20;0.20;;;22.70;60.70;;;;;;5045508;28;20716;-22
2022/06/30 12:26:51;;;;;;;0.10;0.10;;;22.60;60.50;;;;;;5023813;28;20037;-18
2022/06/30 12:29:16;;;;;;;0.20;0.20;;;22.70;60.50;;;;;;5053526;28;20033;-19
2022/06/30 12:31:42;;;;;;;0.20;0.20;;;22.70;60.70;;;;;;5059339;28;20614;-18
2022/06/30 12:34:07;;;;;;;0.70;0.30;;;22.70;60.70;;;;;;5058877;28;20135;-20
2022/06/30 12:36:33;;;;;;;0.98;0.38;;;22.70;61.30;;;;;;5055304;28;20479;-19
2022/06/30 12:39:13;;;;;;;1.00;0.20;;;22.70;60.90;;;;;;5061110;28;20044;-18
2022/06/30 12:41:38;;;;;;;0.65;0.25;;;22.70;60.90;;;;;;5062795;28;20041;-18
2022/06/30 12:44:04;;;;;;;0.55;0.30;;;22.70;60.70;;;;;;5047807;28;20129;-18
2022/06/30 12:46:44;;;;;;;0.30;0.20;;;22.60;60.70;;;;;;5060514;28;20528;-20
2022/06/30 12:49:20;;;;;;;0.20;0.20;;;22.60;60.80;;;;;;5050075;28;20875;-19
2022/06/30 12:51:46;;;;;;;0.43;0.30;;;22.60;60.70;;;;;;5057178;28;20606;-19
2022/06/30 12:54:12;;;;;;;0.77;0.28;;;22.60;60.60;;;;;;5046655;28;20037;-19
2022/06/30 12:56:39;;;;;;;1.52;0.40;;;22.60;60.80;;;;;;5061495;28;20048;-18
2022/06/30 12:59:11;;;;;;;0.20;0.20;;;22.60;60.90;;;;;;5048397;28;20041;-19
2022/06/30 13:01:41;;;;;;;1.15;0.25;;;22.60;60.80;;;;;;5059439;28;20528;-19
2022/06/30 13:04:27;;;;;;;0.22;0.22;;;22.70;60.90;;;;;;5047113;28;20052;-18
2022/06/30 13:06:53;;;;;;;0.90;0.30;;;22.70;60.90;;;;;;5047366;28;20048;-18
2022/06/30 13:09:20;;;;;;;1.35;0.40;;;22.70;61.10;;;;;;5043290;28;20048;-20